sensor_id;sensor_type;location;lat;lon;timestamp;pressure;altitude;pressure_sealevel;temperature;humidity
6514;BME280;3290;47.716;9.070;2023-05-16T00:00:23;96625.69;;;13.19;100.00
6514;BME280;3290;47.716;9.070;2023-05-16T00:02:51;96625.72;;;13.35;100.00
6514;BME280;3290;47.716;9.070;2023-05-16T00:05:17;96628.16;;;13.42;100.00
6514;BME280;3290;47.716;9.070;2023-05-16T00:07:43;96625.16;;;13.33;100.00
6514;BME280;3290;47.716;9.070;2023-05-16T00:10:09;96624.97;;;13.23;100.00
6514;BME280;3290;47.716;9.070;2023-05-16T00:12:35;96616.69;;;13.31;100.00
6514;BME280;3290;47.716;9.070;2023-05-16T00:15:02;96621.47;;;13.34;100.00
6514;BME280;3290;47.716;9.070;2023-05-16T00:17:29;96617.19;;;13.28;100.00
6514;BME280;3290;47.716;9.070;2023-05-16T00:19:54;96618.84;;;13.34;100.00
6514;BME280;3290;47.716;9.070;2023-05-16T00:22:23;96622.44;;;13.28;100.00
6514;BME280;3290;47.716;9.070;2023-05-16T00:24:48;96618.09;;;13.22;100.00
6514;BME280;3290;47.716;9.070;2023-05-16T00:27:14;96615.97;;;13.36;100.00
6514;BME280;3290;47.716;9.070;2023-05-16T00:29:39;96616.69;;;13.31;100.00
6514;BME280;3290;47.716;9.070;2023-05-16T00:32:05;96609.50;;;13.27;100.00
6514;BME280;3290;47.716;9.070;2023-05-16T00:34:33;96616.22;;;13.34;100.00
6514;BME280;3290;47.716;9.070;2023-05-16T00:36:59;96614.13;;;13.36;100.00
6514;BME280;3290;47.716;9.070;2023-05-16T00:39:24;96611.09;;;13.28;100.00
6514;BME280;3290;47.716;9.070;2023-05-16T00:41:50;96615.72;;;13.21;100.00
6514;BME280;3290;47.716;9.070;2023-05-16T00:44:15;96613.25;;;13.15;100.00
6514;BME280;3290;47.716;9.070;2023-05-16T00:46:41;96606.47;;;13.19;100.00
6514;BME280;3290;47.716;9.070;2023-05-16T00:49:07;96606.94;;;13.16;100.00
6514;BME280;3290;47.716;9.070;2023-05-16T00:51:33;96609.56;;;13.16;100.00
6514;BME280;3290;47.716;9.070;2023-05-16T00:53:59;96603.09;;;13.07;100.00
6514;BME280;3290;47.716;9.070;2023-05-16T00:56:25;96605.28;;;13.10;100.00
6514;BME280;3290;47.716;9.070;2023-05-16T00:58:50;96600.38;;;13.02;100.00
6514;BME280;3290;47.716;9.070;2023-05-16T01:01:16;96601.03;;;13.09;100.00
6514;BME280;3290;47.716;9.070;2023-05-16T01:03:43;96598.66;;;13.07;100.00
6514;BME280;3290;47.716;9.070;2023-05-16T01:06:10;96600.47;;;13.07;100.00
6514;BME280;3290;47.716;9.070;2023-05-16T01:08:36;96602.09;;;13.08;100.00
6514;BME280;3290;47.716;9.070;2023-05-16T01:11:10;96595.72;;;13.20;100.00
6514;BME280;3290;47.716;9.070;2023-05-16T01:16:25;96602.81;;;13.52;100.00
6514;BME280;3290;47.716;9.070;2023-05-16T01:18:57;96599.63;;;13.50;100.00
6514;BME280;3290;47.716;9.070;2023-05-16T01:27:28;96602.25;;;13.50;100.00
6514;BME280;3290;47.716;9.070;2023-05-16T01:29:55;96596.44;;;13.48;100.00
6514;BME280;3290;47.716;9.070;2023-05-16T01:32:21;96597.41;;;13.42;100.00
6514;BME280;3290;47.716;9.070;2023-05-16T01:34:47;96594.97;;;13.24;100.00
6514;BME280;3290;47.716;9.070;2023-05-16T01:37:20;96591.56;;;13.24;100.00
6514;BME280;3290;47.716;9.070;2023-05-16T01:39:58;96585.44;;;13.19;100.00
6514;BME280;3290;47.716;9.070;2023-05-16T01:42:34;96589.16;;;13.22;100.00
6514;BME280;3290;47.716;9.070;2023-05-16T01:47:40;96589.16;;;13.22;100.00
6514;BME280;3290;47.716;9.070;2023-05-16T01:50:14;96591.19;;;13.32;100.00
6514;BME280;3290;47.716;9.070;2023-05-16T01:53:05;96588.94;;;13.24;100.00
6514;BME280;3290;47.716;9.070;2023-05-16T01:55:42;96587.97;;;13.14;100.00
6514;BME280;3290;47.716;9.070;2023-05-16T01:58:12;96589.91;;;13.18;100.00
6514;BME280;3290;47.716;9.070;2023-05-16T02:00:39;96584.22;;;13.26;100.00
6514;BME280;3290;47.716;9.070;2023-05-16T02:03:05;96578.25;;;13.30;100.00
6514;BME280;3290;47.716;9.070;2023-05-16T02:05:31;96574.50;;;13.43;100.00
6514;BME280;3290;47.716;9.070;2023-05-16T02:07:58;96585.34;;;13.46;100.00
6514;BME280;3290;47.716;9.070;2023-05-16T02:10:23;96574.91;;;13.51;100.00
6514;BME280;3290;47.716;9.070;2023-05-16T02:12:49;96578.00;;;13.48;100.00
6514;BME280;3290;47.716;9.070;2023-05-16T02:15:15;96586.28;;;13.40;100.00
6514;BME280;3290;47.716;9.070;2023-05-16T02:17:41;96579.53;;;13.12;100.00
6514;BME280;3290;47.716;9.070;2023-05-16T02:20:07;96587.03;;;13.20;100.00
6514;BME280;3290;47.716;9.070;2023-05-16T02:22:36;96576.84;;;13.23;100.00
6514;BME280;3290;47.716;9.070;2023-05-16T02:25:04;96578.25;;;13.30;100.00
6514;BME280;3290;47.716;9.070;2023-05-16T02:27:29;96576.09;;;13.27;100.00
6514;BME280;3290;47.716;9.070;2023-05-16T02:29:55;96575.88;;;13.13;100.00
6514;BME280;3290;47.716;9.070;2023-05-16T02:32:20;96577.06;;;13.21;100.00
6514;BME280;3290;47.716;9.070;2023-05-16T02:34:46;96572.28;;;13.19;100.00
6514;BME280;3290;47.716;9.070;2023-05-16T02:37:11;96569.47;;;13.09;100.00
6514;BME280;3290;47.716;9.070;2023-05-16T02:39:37;96565.72;;;13.05;100.00
6514;BME280;3290;47.716;9.070;2023-05-16T02:42:03;96567.81;;;13.03;100.00
6514;BME280;3290;47.716;9.070;2023-05-16T02:44:29;96568.59;;;13.03;100.00
6514;BME280;3290;47.716;9.070;2023-05-16T02:46:57;96562.78;;;13.01;100.00
6514;BME280;3290;47.716;9.070;2023-05-16T02:49:23;96555.75;;;13.07;100.00
6514;BME280;3290;47.716;9.070;2023-05-16T02:51:48;96560.66;;;13.15;100.00
6514;BME280;3290;47.716;9.070;2023-05-16T02:54:14;96558.38;;;13.07;100.00
6514;BME280;3290;47.716;9.070;2023-05-16T02:56:39;96561.66;;;13.14;100.00
6514;BME280;3290;47.716;9.070;2023-05-16T02:59:04;96561.09;;;13.28;100.00
6514;BME280;3290;47.716;9.070;2023-05-16T03:01:30;96562.78;;;13.34;100.00
6514;BME280;3290;47.716;9.070;2023-05-16T03:03:55;96566.22;;;13.34;100.00
6514;BME280;3290;47.716;9.070;2023-05-16T03:06:21;96558.66;;;13.21;100.00
6514;BME280;3290;47.716;9.070;2023-05-16T03:08:46;96557.13;;;13.25;100.00
6514;BME280;3290;47.716;9.070;2023-05-16T03:11:13;96557.50;;;13.18;100.00
6514;BME280;3290;47.716;9.070;2023-05-16T03:13:38;96561.34;;;13.10;100.00
6514;BME280;3290;47.716;9.070;2023-05-16T03:16:04;96552.91;;;12.92;100.00
6514;BME280;3290;47.716;9.070;2023-05-16T03:18:30;96559.72;;;12.93;100.00
6514;BME280;3290;47.716;9.070;2023-05-16T03:20:55;96561.97;;;13.17;100.00
6514;BME280;3290;47.716;9.070;2023-05-16T03:23:22;96570.00;;;12.94;100.00
6514;BME280;3290;47.716;9.070;2023-05-16T03:25:47;96555.53;;;12.92;100.00
6514;BME280;3290;47.716;9.070;2023-05-16T03:28:13;96566.28;;;13.07;100.00
6514;BME280;3290;47.716;9.070;2023-05-16T03:30:38;96561.16;;;12.84;100.00
6514;BME280;3290;47.716;9.070;2023-05-16T03:33:03;96564.44;;;12.91;100.00
6514;BME280;3290;47.716;9.070;2023-05-16T03:35:30;96561.25;;;12.89;100.00
6514;BME280;3290;47.716;9.070;2023-05-16T03:37:56;96553.34;;;12.89;100.00
6514;BME280;3290;47.716;9.070;2023-05-16T03:40:21;96553.22;;;12.95;100.00
6514;BME280;3290;47.716;9.070;2023-05-16T03:42:47;96554.09;;;13.01;100.00
6514;BME280;3290;47.716;9.070;2023-05-16T03:45:12;96550.16;;;12.87;100.00
6514;BME280;3290;47.716;9.070;2023-05-16T03:47:38;96552.91;;;12.92;100.00
6514;BME280;3290;47.716;9.070;2023-05-16T03:50:04;96551.78;;;13.04;100.00
6514;BME280;3290;47.716;9.070;2023-05-16T03:52:30;96549.38;;;12.86;100.00
6514;BME280;3290;47.716;9.070;2023-05-16T03:54:55;96547.13;;;12.95;100.00
6514;BME280;3290;47.716;9.070;2023-05-16T03:57:21;96552.59;;;12.77;100.00
6514;BME280;3290;47.716;9.070;2023-05-16T03:59:47;96568.44;;;12.93;100.00
6514;BME280;3290;47.716;9.070;2023-05-16T04:02:12;96561.84;;;12.79;100.00
6514;BME280;3290;47.716;9.070;2023-05-16T04:04:38;96569.22;;;12.66;100.00
6514;BME280;3290;47.716;9.070;2023-05-16T04:07:03;96570.16;;;12.60;100.00
6514;BME280;3290;47.716;9.070;2023-05-16T04:09:29;96563.88;;;12.89;100.00
6514;BME280;3290;47.716;9.070;2023-05-16T04:11:55;96574.44;;;12.78;100.00
6514;BME280;3290;47.716;9.070;2023-05-16T04:14:22;96567.81;;;12.75;100.00
6514;BME280;3290;47.716;9.070;2023-05-16T04:16:47;96568.81;;;12.85;100.00
6514;BME280;3290;47.716;9.070;2023-05-16T04:19:13;96567.34;;;12.78;100.00
6514;BME280;3290;47.716;9.070;2023-05-16T04:21:39;96573.22;;;12.69;100.00
6514;BME280;3290;47.716;9.070;2023-05-16T04:24:05;96571.66;;;12.84;100.00
6514;BME280;3290;47.716;9.070;2023-05-16T04:26:30;96565.47;;;12.90;100.00
6514;BME280;3290;47.716;9.070;2023-05-16T04:28:56;96571.75;;;12.89;100.00
6514;BME280;3290;47.716;9.070;2023-05-16T04:31:25;96570.44;;;13.03;100.00
6514;BME280;3290;47.716;9.070;2023-05-16T04:33:50;96576.66;;;12.97;100.00
6514;BME280;3290;47.716;9.070;2023-05-16T04:36:16;96570.34;;;12.98;100.00
6514;BME280;3290;47.716;9.070;2023-05-16T04:38:41;96567.09;;;13.23;100.00
6514;BME280;3290;47.716;9.070;2023-05-16T04:41:07;96575.72;;;13.35;100.00
6514;BME280;3290;47.716;9.070;2023-05-16T04:43:33;96578.66;;;13.22;100.00
6514;BME280;3290;47.716;9.070;2023-05-16T04:45:59;96582.09;;;13.39;100.00
6514;BME280;3290;47.716;9.070;2023-05-16T04:48:24;96577.53;;;13.51;100.00
6514;BME280;3290;47.716;9.070;2023-05-16T04:50:50;96575.53;;;13.58;100.00
6514;BME280;3290;47.716;9.070;2023-05-16T04:53:15;96578.50;;;13.61;100.00
6514;BME280;3290;47.716;9.070;2023-05-16T04:55:41;96579.19;;;13.57;100.00
6514;BME280;3290;47.716;9.070;2023-05-16T04:58:07;96575.28;;;13.59;100.00
6514;BME280;3290;47.716;9.070;2023-05-16T05:00:33;96581.44;;;13.65;100.00
6514;BME280;3290;47.716;9.070;2023-05-16T05:02:58;96579.00;;;13.42;100.00
6514;BME280;3290;47.716;9.070;2023-05-16T05:05:24;96581.69;;;13.63;100.00
6514;BME280;3290;47.716;9.070;2023-05-16T05:07:49;96580.50;;;13.55;100.00
6514;BME280;3290;47.716;9.070;2023-05-16T05:10:15;96580.78;;;13.74;100.00
6514;BME280;3290;47.716;9.070;2023-05-16T05:12:40;96586.50;;;13.88;100.00
6514;BME280;3290;47.716;9.070;2023-05-16T05:15:06;96576.94;;;13.82;100.00
6514;BME280;3290;47.716;9.070;2023-05-16T05:17:32;96582.97;;;13.82;100.00
6514;BME280;3290;47.716;9.070;2023-05-16T05:19:57;96581.41;;;13.81;100.00
6514;BME280;3290;47.716;9.070;2023-05-16T05:22:23;96588.56;;;13.86;100.00
6514;BME280;3290;47.716;9.070;2023-05-16T05:24:48;96590.19;;;13.87;100.00
6514;BME280;3290;47.716;9.070;2023-05-16T05:27:14;96590.81;;;13.94;100.00
6514;BME280;3290;47.716;9.070;2023-05-16T05:29:40;96587.16;;;13.78;100.00
6514;BME280;3290;47.716;9.070;2023-05-16T05:32:05;96595.09;;;13.99;100.00
6514;BME280;3290;47.716;9.070;2023-05-16T05:34:31;96596.50;;;14.02;100.00
6514;BME280;3290;47.716;9.070;2023-05-16T05:36:57;96593.72;;;13.76;100.00
6514;BME280;3290;47.716;9.070;2023-05-16T05:39:23;96589.91;;;14.04;100.00
6514;BME280;3290;47.716;9.070;2023-05-16T05:41:49;96590.31;;;13.97;100.00
6514;BME280;3290;47.716;9.070;2023-05-16T05:44:14;96577.50;;;14.21;100.00
6514;BME280;3290;47.716;9.070;2023-05-16T05:46:40;96578.44;;;14.32;100.00
6514;BME280;3290;47.716;9.070;2023-05-16T05:49:05;96585.09;;;14.39;100.00
6514;BME280;3290;47.716;9.070;2023-05-16T05:51:31;96583.06;;;14.67;100.00
6514;BME280;3290;47.716;9.070;2023-05-16T05:53:57;96585.44;;;14.69;100.00
6514;BME280;3290;47.716;9.070;2023-05-16T05:56:22;96582.16;;;14.57;100.00
6514;BME280;3290;47.716;9.070;2023-05-16T05:58:49;96593.13;;;14.70;100.00
6514;BME280;3290;47.716;9.070;2023-05-16T06:01:15;96590.63;;;14.85;100.00
6514;BME280;3290;47.716;9.070;2023-05-16T06:03:41;96593.81;;;15.13;100.00
6514;BME280;3290;47.716;9.070;2023-05-16T06:06:07;96596.84;;;15.00;100.00
6514;BME280;3290;47.716;9.070;2023-05-16T06:08:32;96591.94;;;15.40;100.00
6514;BME280;3290;47.716;9.070;2023-05-16T06:10:58;96591.00;;;15.51;100.00
6514;BME280;3290;47.716;9.070;2023-05-16T06:13:24;96581.28;;;15.25;100.00
6514;BME280;3290;47.716;9.070;2023-05-16T06:15:53;96592.91;;;15.29;100.00
6514;BME280;3290;47.716;9.070;2023-05-16T06:18:19;96589.69;;;15.53;100.00
6514;BME280;3290;47.716;9.070;2023-05-16T06:20:44;96584.34;;;15.79;100.00
6514;BME280;3290;47.716;9.070;2023-05-16T06:23:10;96584.78;;;15.66;100.00
6514;BME280;3290;47.716;9.070;2023-05-16T06:25:36;96588.16;;;15.98;100.00
6514;BME280;3290;47.716;9.070;2023-05-16T06:28:01;96589.31;;;16.12;97.69
6514;BME280;3290;47.716;9.070;2023-05-16T06:30:27;96592.25;;;16.20;95.95
6514;BME280;3290;47.716;9.070;2023-05-16T06:32:52;96595.22;;;16.29;94.23
6514;BME280;3290;47.716;9.070;2023-05-16T06:35:17;96591.13;;;16.06;92.27
6514;BME280;3290;47.716;9.070;2023-05-16T06:37:43;96594.25;;;15.99;92.23
6514;BME280;3290;47.716;9.070;2023-05-16T06:40:09;96580.38;;;15.77;94.13
6514;BME280;3290;47.716;9.070;2023-05-16T06:42:34;96589.44;;;15.96;95.50
6514;BME280;3290;47.716;9.070;2023-05-16T06:45:00;96593.28;;;15.73;94.35
6514;BME280;3290;47.716;9.070;2023-05-16T06:47:25;96591.28;;;15.90;94.38
6514;BME280;3290;47.716;9.070;2023-05-16T06:49:50;96583.13;;;16.42;91.86
6514;BME280;3290;47.716;9.070;2023-05-16T06:52:16;96590.78;;;16.39;92.32
6514;BME280;3290;47.716;9.070;2023-05-16T06:54:41;96588.88;;;16.25;92.96
6514;BME280;3290;47.716;9.070;2023-05-16T06:57:07;96593.38;;;15.88;92.12
6514;BME280;3290;47.716;9.070;2023-05-16T06:59:35;96588.16;;;15.98;92.02
6514;BME280;3290;47.716;9.070;2023-05-16T07:02:01;96590.44;;;16.21;89.97
6514;BME280;3290;47.716;9.070;2023-05-16T07:04:26;96579.66;;;16.37;91.61
6514;BME280;3290;47.716;9.070;2023-05-16T07:06:52;96596.34;;;16.42;90.30
6514;BME280;3290;47.716;9.070;2023-05-16T07:09:18;96585.84;;;16.62;92.72
6514;BME280;3290;47.716;9.070;2023-05-16T07:11:43;96588.91;;;16.40;90.36
6514;BME280;3290;47.716;9.070;2023-05-16T07:14:09;96594.63;;;16.17;89.93
6514;BME280;3290;47.716;9.070;2023-05-16T07:16:34;96582.50;;;16.21;90.67
6514;BME280;3290;47.716;9.070;2023-05-16T07:19:00;96583.50;;;16.76;88.80
6514;BME280;3290;47.716;9.070;2023-05-16T07:21:26;96590.69;;;16.19;91.45
6514;BME280;3290;47.716;9.070;2023-05-16T07:23:52;96582.25;;;16.27;89.62
6514;BME280;3290;47.716;9.070;2023-05-16T07:26:17;96586.28;;;16.40;89.10
6514;BME280;3290;47.716;9.070;2023-05-16T07:28:43;96580.31;;;16.69;88.08
6514;BME280;3290;47.716;9.070;2023-05-16T07:31:08;96585.31;;;16.65;87.84
6514;BME280;3290;47.716;9.070;2023-05-16T07:33:33;96587.22;;;16.80;85.32
6514;BME280;3290;47.716;9.070;2023-05-16T07:35:59;96586.94;;;16.71;86.06
6514;BME280;3290;47.716;9.070;2023-05-16T07:38:25;96594.53;;;16.53;86.08
6514;BME280;3290;47.716;9.070;2023-05-16T07:40:50;96598.03;;;16.12;87.52
6514;BME280;3290;47.716;9.070;2023-05-16T07:43:16;96596.59;;;16.36;85.74
6514;BME280;3290;47.716;9.070;2023-05-16T07:45:41;96599.44;;;16.25;84.98
6514;BME280;3290;47.716;9.070;2023-05-16T07:48:07;96599.63;;;16.64;85.29
6514;BME280;3290;47.716;9.070;2023-05-16T07:50:32;96602.34;;;16.89;82.62
6514;BME280;3290;47.716;9.070;2023-05-16T07:52:57;96600.97;;;16.72;81.90
6514;BME280;3290;47.716;9.070;2023-05-16T07:55:23;96596.00;;;17.00;81.21
6514;BME280;3290;47.716;9.070;2023-05-16T07:57:49;96585.09;;;16.82;81.51
6514;BME280;3290;47.716;9.070;2023-05-16T08:00:15;96593.97;;;17.46;78.38
6514;BME280;3290;47.716;9.070;2023-05-16T08:02:41;96594.16;;;17.00;81.09
6514;BME280;3290;47.716;9.070;2023-05-16T08:05:07;96593.44;;;17.59;79.45
6514;BME280;3290;47.716;9.070;2023-05-16T08:07:33;96583.88;;;17.83;78.48
6514;BME280;3290;47.716;9.070;2023-05-16T08:09:58;96594.50;;;17.43;79.81
6514;BME280;3290;47.716;9.070;2023-05-16T08:12:23;96591.06;;;17.33;80.84
6514;BME280;3290;47.716;9.070;2023-05-16T08:14:49;96591.31;;;17.61;79.94
6514;BME280;3290;47.716;9.070;2023-05-16T08:17:14;96600.34;;;17.40;80.16
6514;BME280;3290;47.716;9.070;2023-05-16T08:19:40;96598.13;;;17.08;80.36
6514;BME280;3290;47.716;9.070;2023-05-16T08:22:06;96600.59;;;17.24;78.86
6514;BME280;3290;47.716;9.070;2023-05-16T08:24:33;96597.13;;;17.23;79.91
6514;BME280;3290;47.716;9.070;2023-05-16T08:26:58;96597.09;;;17.09;80.26
6514;BME280;3290;47.716;9.070;2023-05-16T08:29:24;96595.56;;;17.27;80.05
6514;BME280;3290;47.716;9.070;2023-05-16T08:31:50;96596.59;;;17.22;81.12
6514;BME280;3290;47.716;9.070;2023-05-16T08:34:16;96593.72;;;17.38;79.47
6514;BME280;3290;47.716;9.070;2023-05-16T08:36:41;96590.94;;;16.88;79.63
6514;BME280;3290;47.716;9.070;2023-05-16T08:39:06;96596.63;;;17.51;79.00
6514;BME280;3290;47.716;9.070;2023-05-16T08:41:34;96597.94;;;17.29;78.60
6514;BME280;3290;47.716;9.070;2023-05-16T08:43:59;96591.81;;;17.98;77.34
6514;BME280;3290;47.716;9.070;2023-05-16T08:46:27;96587.88;;;17.80;76.64
6514;BME280;3290;47.716;9.070;2023-05-16T08:48:57;96592.63;;;17.68;77.07
6514;BME280;3290;47.716;9.070;2023-05-16T08:51:24;96595.56;;;17.37;77.89
6514;BME280;3290;47.716;9.070;2023-05-16T08:53:58;96596.63;;;17.61;77.20
6514;BME280;3290;47.716;9.070;2023-05-16T08:56:24;96595.03;;;17.60;76.76
6514;BME280;3290;47.716;9.070;2023-05-16T08:58:50;96597.91;;;17.88;76.17
6514;BME280;3290;47.716;9.070;2023-05-16T09:01:20;96595.00;;;17.95;75.48
6514;BME280;3290;47.716;9.070;2023-05-16T09:03:47;96592.88;;;18.06;76.13
6514;BME280;3290;47.716;9.070;2023-05-16T09:06:12;96594.50;;;17.63;76.39
6514;BME280;3290;47.716;9.070;2023-05-16T09:08:38;96596.84;;;17.20;77.48
6514;BME280;3290;47.716;9.070;2023-05-16T09:11:03;96599.00;;;17.38;78.38
6514;BME280;3290;47.716;9.070;2023-05-16T09:13:29;96596.09;;;17.54;76.15
6514;BME280;3290;47.716;9.070;2023-05-16T09:16:08;96597.63;;;17.16;78.39
6514;BME280;3290;47.716;9.070;2023-05-16T09:18:33;96602.97;;;17.25;77.97
6514;BME280;3290;47.716;9.070;2023-05-16T09:21:00;96604.56;;;17.26;78.36
6514;BME280;3290;47.716;9.070;2023-05-16T09:23:26;96591.78;;;16.94;78.62
6514;BME280;3290;47.716;9.070;2023-05-16T09:25:54;96583.53;;;16.95;79.52
6514;BME280;3290;47.716;9.070;2023-05-16T09:28:21;96581.16;;;16.89;79.30
6514;BME280;3290;47.716;9.070;2023-05-16T09:30:47;96581.66;;;16.81;79.53
6514;BME280;3290;47.716;9.070;2023-05-16T09:33:13;96585.44;;;17.15;78.59
6514;BME280;3290;47.716;9.070;2023-05-16T09:35:39;96589.41;;;17.12;78.29
6514;BME280;3290;47.716;9.070;2023-05-16T09:38:04;96578.03;;;17.07;78.22
6514;BME280;3290;47.716;9.070;2023-05-16T09:40:30;96596.88;;;17.25;77.86
6514;BME280;3290;47.716;9.070;2023-05-16T09:43:14;96590.19;;;17.08;77.52
6514;BME280;3290;47.716;9.070;2023-05-16T09:45:44;96593.91;;;17.07;77.28
6514;BME280;3290;47.716;9.070;2023-05-16T09:48:10;96598.16;;;17.03;78.74
6514;BME280;3290;47.716;9.070;2023-05-16T09:50:39;96600.34;;;17.45;77.03
6514;BME280;3290;47.716;9.070;2023-05-16T09:53:05;96594.16;;;17.00;77.30
6514;BME280;3290;47.716;9.070;2023-05-16T09:55:31;96589.13;;;17.04;77.25
6514;BME280;3290;47.716;9.070;2023-05-16T09:57:56;96592.28;;;16.86;79.42
6514;BME280;3290;47.716;9.070;2023-05-16T10:00:28;96591.72;;;16.79;76.91
6514;BME280;3290;47.716;9.070;2023-05-16T10:02:55;96590.47;;;17.11;77.10
6514;BME280;3290;47.716;9.070;2023-05-16T10:05:22;96592.84;;;17.03;78.02
6514;BME280;3290;47.716;9.070;2023-05-16T10:07:49;96592.78;;;16.78;78.97
6514;BME280;3290;47.716;9.070;2023-05-16T10:10:15;96589.13;;;16.94;78.29
6514;BME280;3290;47.716;9.070;2023-05-16T10:12:41;96598.59;;;16.85;78.87
6514;BME280;3290;47.716;9.070;2023-05-16T10:15:07;96594.28;;;16.54;78.29
6514;BME280;3290;47.716;9.070;2023-05-16T10:17:35;96590.59;;;16.55;77.13
6514;BME280;3290;47.716;9.070;2023-05-16T10:20:05;96593.31;;;16.80;77.25
6514;BME280;3290;47.716;9.070;2023-05-16T10:22:35;96599.56;;;16.49;80.93
6514;BME280;3290;47.716;9.070;2023-05-16T10:25:11;96596.47;;;16.77;81.42
6514;BME280;3290;47.716;9.070;2023-05-16T10:27:41;96598.06;;;16.73;83.30
6514;BME280;3290;47.716;9.070;2023-05-16T10:30:07;96610.59;;;16.37;86.13
6514;BME280;3290;47.716;9.070;2023-05-16T10:32:35;96612.28;;;16.11;87.33
6514;BME280;3290;47.716;9.070;2023-05-16T10:35:02;96610.53;;;16.22;86.23
6514;BME280;3290;47.716;9.070;2023-05-16T10:37:29;96609.22;;;15.88;86.24
6514;BME280;3290;47.716;9.070;2023-05-16T10:39:56;96622.34;;;15.73;87.62
6514;BME280;3290;47.716;9.070;2023-05-16T10:42:22;96611.41;;;16.01;89.35
6514;BME280;3290;47.716;9.070;2023-05-16T10:44:47;96614.06;;;15.96;91.09
6514;BME280;3290;47.716;9.070;2023-05-16T10:47:18;96620.25;;;15.75;92.53
6514;BME280;3290;47.716;9.070;2023-05-16T10:49:43;96617.44;;;15.92;92.47
6514;BME280;3290;47.716;9.070;2023-05-16T10:52:11;96613.31;;;15.64;93.21
6514;BME280;3290;47.716;9.070;2023-05-16T10:54:41;96629.41;;;15.63;92.74
6514;BME280;3290;47.716;9.070;2023-05-16T10:57:10;96622.22;;;15.59;93.20
6514;BME280;3290;47.716;9.070;2023-05-16T10:59:43;96610.91;;;15.06;93.41
6514;BME280;3290;47.716;9.070;2023-05-16T11:02:27;96619.09;;;15.09;94.15
6514;BME280;3290;47.716;9.070;2023-05-16T11:04:55;96612.00;;;15.36;93.94
6514;BME280;3290;47.716;9.070;2023-05-16T11:07:24;96624.38;;;15.09;96.23
6514;BME280;3290;47.716;9.070;2023-05-16T11:10:09;96629.56;;;15.52;94.87
6514;BME280;3290;47.716;9.070;2023-05-16T11:12:47;96625.88;;;15.53;94.58
6514;BME280;3290;47.716;9.070;2023-05-16T11:15:24;96625.41;;;15.97;90.97
6514;BME280;3290;47.716;9.070;2023-05-16T11:18:02;96629.69;;;15.66;92.94
6514;BME280;3290;47.716;9.070;2023-05-16T11:20:33;96624.78;;;15.18;95.62
6514;BME280;3290;47.716;9.070;2023-05-16T11:23:19;96614.03;;;15.29;96.27
6514;BME280;3290;47.716;9.070;2023-05-16T11:25:56;96619.84;;;15.26;95.13
6514;BME280;3290;47.716;9.070;2023-05-16T11:28:26;96627.78;;;15.31;94.50
6514;BME280;3290;47.716;9.070;2023-05-16T11:30:54;96627.00;;;15.62;93.02
6514;BME280;3290;47.716;9.070;2023-05-16T11:33:22;96627.97;;;15.51;90.19
6514;BME280;3290;47.716;9.070;2023-05-16T11:36:01;96633.22;;;15.20;91.66
6514;BME280;3290;47.716;9.070;2023-05-16T11:38:29;96633.94;;;15.36;89.50
6514;BME280;3290;47.716;9.070;2023-05-16T11:41:00;96637.44;;;15.47;88.61
6514;BME280;3290;47.716;9.070;2023-05-16T11:43:26;96631.19;;;15.26;88.02
6514;BME280;3290;47.716;9.070;2023-05-16T11:45:54;96631.19;;;15.26;87.94
6514;BME280;3290;47.716;9.070;2023-05-16T11:48:23;96627.00;;;15.30;86.29
6514;BME280;3290;47.716;9.070;2023-05-16T11:50:49;96627.25;;;15.60;84.88
6514;BME280;3290;47.716;9.070;2023-05-16T11:53:14;96635.28;;;16.11;83.05
6514;BME280;3290;47.716;9.070;2023-05-16T11:55:40;96632.63;;;15.70;83.78
6514;BME280;3290;47.716;9.070;2023-05-16T11:58:06;96636.69;;;15.82;80.22
6514;BME280;3290;47.716;9.070;2023-05-16T12:00:32;96644.06;;;15.49;82.13
6514;BME280;3290;47.716;9.070;2023-05-16T12:03:02;96644.72;;;15.61;80.74
6514;BME280;3290;47.716;9.070;2023-05-16T12:05:29;96638.84;;;15.90;78.79
6514;BME280;3290;47.716;9.070;2023-05-16T12:07:56;96649.78;;;16.03;78.45
6514;BME280;3290;47.716;9.070;2023-05-16T12:10:22;96651.00;;;15.91;77.37
6514;BME280;3290;47.716;9.070;2023-05-16T12:12:49;96643.50;;;16.14;76.44
6514;BME280;3290;47.716;9.070;2023-05-16T12:15:17;96646.88;;;16.46;74.56
6514;BME280;3290;47.716;9.070;2023-05-16T12:17:42;96646.56;;;16.38;74.65
6514;BME280;3290;47.716;9.070;2023-05-16T12:20:09;96652.00;;;15.85;76.09
6514;BME280;3290;47.716;9.070;2023-05-16T12:22:42;96646.22;;;16.19;75.50
6514;BME280;3290;47.716;9.070;2023-05-16T12:25:31;96645.88;;;16.52;74.15
6514;BME280;3290;47.716;9.070;2023-05-16T12:27:59;96638.22;;;16.55;75.03
6514;BME280;3290;47.716;9.070;2023-05-16T12:30:26;96637.31;;;16.96;74.31
6514;BME280;3290;47.716;9.070;2023-05-16T12:32:57;96629.00;;;16.68;74.56
6514;BME280;3290;47.716;9.070;2023-05-16T12:35:24;96635.09;;;16.68;73.17
6514;BME280;3290;47.716;9.070;2023-05-16T12:37:50;96640.59;;;16.62;72.11
6514;BME280;3290;47.716;9.070;2023-05-16T12:40:17;96639.41;;;16.89;72.20
6514;BME280;3290;47.716;9.070;2023-05-16T12:42:45;96641.34;;;16.47;73.13
6514;BME280;3290;47.716;9.070;2023-05-16T12:45:14;96647.25;;;16.74;72.85
6514;BME280;3290;47.716;9.070;2023-05-16T12:47:43;96656.72;;;16.60;72.56
6514;BME280;3290;47.716;9.070;2023-05-16T12:50:12;96653.59;;;16.68;74.04
6514;BME280;3290;47.716;9.070;2023-05-16T12:52:51;96653.09;;;16.71;71.73
6514;BME280;3290;47.716;9.070;2023-05-16T12:55:18;96663.75;;;16.35;73.09
6514;BME280;3290;47.716;9.070;2023-05-16T12:57:45;96661.94;;;16.41;71.76
6514;BME280;3290;47.716;9.070;2023-05-16T13:00:12;96657.84;;;16.74;72.02
6514;BME280;3290;47.716;9.070;2023-05-16T13:02:38;96663.47;;;16.32;73.58
6514;BME280;3290;47.716;9.070;2023-05-16T13:05:04;96664.53;;;16.36;73.29
6514;BME280;3290;47.716;9.070;2023-05-16T13:07:31;96662.03;;;16.65;72.76
6514;BME280;3290;47.716;9.070;2023-05-16T13:09:57;96656.03;;;16.75;72.50
6514;BME280;3290;47.716;9.070;2023-05-16T13:12:22;96653.91;;;16.86;71.96
6514;BME280;3290;47.716;9.070;2023-05-16T13:14:54;96658.94;;;16.78;72.67
6514;BME280;3290;47.716;9.070;2023-05-16T13:17:19;96661.97;;;16.45;74.72
6514;BME280;3290;47.716;9.070;2023-05-16T13:19:45;96658.50;;;16.40;74.24
6514;BME280;3290;47.716;9.070;2023-05-16T13:22:11;96658.94;;;16.83;73.79
6514;BME280;3290;47.716;9.070;2023-05-16T13:24:36;96665.84;;;16.89;73.58
6514;BME280;3290;47.716;9.070;2023-05-16T13:27:02;96658.25;;;17.12;73.72